sensor_id;sensor_type;location;lat;lon;timestamp;pressure;altitude;pressure_sealevel;temperature
67515;BMP280;60646;55.802;37.032;2023-04-29T00:00:06;99514.03;;;10.15
67515;BMP280;60646;55.802;37.032;2023-04-29T00:02:40;99537.63;;;10.28
67515;BMP280;60646;55.802;37.032;2023-04-29T00:05:07;99552.44;;;10.34
67515;BMP280;60646;55.802;37.032;2023-04-29T00:07:33;99534.41;;;10.18
67515;BMP280;60646;55.802;37.032;2023-04-29T00:10:01;99550.22;;;10.22
67515;BMP280;60646;55.802;37.032;2023-04-29T00:12:31;99553.84;;;10.24
67515;BMP280;60646;55.802;37.032;2023-04-29T00:14:58;99522.00;;;10.04
67515;BMP280;60646;55.802;37.032;2023-04-29T00:17:28;99544.84;;;10.16
67515;BMP280;60646;55.802;37.032;2023-04-29T00:19:59;99531.94;;;10.09
67515;BMP280;60646;55.802;37.032;2023-04-29T00:22:25;99548.03;;;10.20
67515;BMP280;60646;55.802;37.032;2023-04-29T00:24:50;99543.34;;;10.10
67515;BMP280;60646;55.802;37.032;2023-04-29T00:27:18;99542.81;;;10.00
67515;BMP280;60646;55.802;37.032;2023-04-29T00:29:44;99529.94;;;9.93
67515;BMP280;60646;55.802;37.032;2023-04-29T00:32:10;99516.81;;;9.84
67515;BMP280;60646;55.802;37.032;2023-04-29T00:34:37;99503.47;;;9.84
67515;BMP280;60646;55.802;37.032;2023-04-29T00:37:02;99520.22;;;9.84
67515;BMP280;60646;55.802;37.032;2023-04-29T00:39:28;99502.19;;;9.74
67515;BMP280;60646;55.802;37.032;2023-04-29T00:41:54;99538.69;;;9.99
67515;BMP280;60646;55.802;37.032;2023-04-29T00:44:20;99518.03;;;9.88
67515;BMP280;60646;55.802;37.032;2023-04-29T00:46:46;99504.38;;;9.81
67515;BMP280;60646;55.802;37.032;2023-04-29T00:49:12;99501.50;;;9.79
67515;BMP280;60646;55.802;37.032;2023-04-29T00:51:41;99526.06;;;9.94
67515;BMP280;60646;55.802;37.032;2023-04-29T00:54:09;99508.53;;;9.82
67515;BMP280;60646;55.802;37.032;2023-04-29T00:56:36;99517.72;;;9.81
67515;BMP280;60646;55.802;37.032;2023-04-29T00:59:03;99510.94;;;9.80
67515;BMP280;60646;55.802;37.032;2023-04-29T01:01:30;99510.72;;;9.78
67515;BMP280;60646;55.802;37.032;2023-04-29T01:03:56;99530.69;;;9.93
67515;BMP280;60646;55.802;37.032;2023-04-29T01:10:03;99525.84;;;9.97
67515;BMP280;60646;55.802;37.032;2023-04-29T01:15:09;99498.06;;;9.73
67515;BMP280;60646;55.802;37.032;2023-04-29T01:17:46;99538.44;;;9.97
67515;BMP280;60646;55.802;37.032;2023-04-29T01:20:14;99510.25;;;9.79
67515;BMP280;60646;55.802;37.032;2023-04-29T01:22:41;99499.06;;;9.75
67515;BMP280;60646;55.802;37.032;2023-04-29T01:25:08;99519.97;;;9.88
67515;BMP280;60646;55.802;37.032;2023-04-29T01:31:31;99507.56;;;9.85
67515;BMP280;60646;55.802;37.032;2023-04-29T01:34:30;99515.16;;;9.97
67515;BMP280;60646;55.802;37.032;2023-04-29T01:37:01;99520.53;;;10.03
67515;BMP280;60646;55.802;37.032;2023-04-29T01:42:26;99488.94;;;9.90
67515;BMP280;60646;55.802;37.032;2023-04-29T01:44:59;99507.19;;;10.03
67515;BMP280;60646;55.802;37.032;2023-04-29T01:47:26;99501.38;;;10.05
67515;BMP280;60646;55.802;37.032;2023-04-29T01:49:53;99495.00;;;9.91
67515;BMP280;60646;55.802;37.032;2023-04-29T01:52:20;99498.94;;;10.01
67515;BMP280;60646;55.802;37.032;2023-04-29T01:54:54;99508.88;;;10.06
67515;BMP280;60646;55.802;37.032;2023-04-29T01:57:20;99477.03;;;9.86
67515;BMP280;60646;55.802;37.032;2023-04-29T02:00:04;99488.47;;;9.97
67515;BMP280;60646;55.802;37.032;2023-04-29T02:02:40;99507.19;;;10.09
67515;BMP280;60646;55.802;37.032;2023-04-29T02:05:23;99494.78;;;10.00
67515;BMP280;60646;55.802;37.032;2023-04-29T02:07:54;99489.94;;;9.93
67515;BMP280;60646;55.802;37.032;2023-04-29T02:10:20;99481.41;;;9.89
67515;BMP280;60646;55.802;37.032;2023-04-29T02:12:48;99498.41;;;9.91
67515;BMP280;60646;55.802;37.032;2023-04-29T02:15:35;99499.13;;;9.92
67515;BMP280;60646;55.802;37.032;2023-04-29T02:18:00;99526.38;;;10.07
67515;BMP280;60646;55.802;37.032;2023-04-29T02:20:26;99497.19;;;9.87
67515;BMP280;60646;55.802;37.032;2023-04-29T02:22:52;99494.50;;;9.87
67515;BMP280;60646;55.802;37.032;2023-04-29T02:25:19;99513.66;;;9.91
67515;BMP280;60646;55.802;37.032;2023-04-29T02:27:47;99521.94;;;9.98
67515;BMP280;60646;55.802;37.032;2023-04-29T02:30:13;99524.63;;;9.93
67515;BMP280;60646;55.802;37.032;2023-04-29T02:32:40;99535.78;;;9.97
67515;BMP280;60646;55.802;37.032;2023-04-29T02:35:06;99533.34;;;9.99
67515;BMP280;60646;55.802;37.032;2023-04-29T02:37:33;99554.78;;;10.10
67515;BMP280;60646;55.802;37.032;2023-04-29T02:40:00;99535.28;;;9.93
67515;BMP280;60646;55.802;37.032;2023-04-29T02:42:45;99533.34;;;9.99
67515;BMP280;60646;55.802;37.032;2023-04-29T02:45:11;99538.94;;;10.01
67515;BMP280;60646;55.802;37.032;2023-04-29T02:47:37;99533.34;;;9.99
67515;BMP280;60646;55.802;37.032;2023-04-29T02:50:03;99526.31;;;9.96
67515;BMP280;60646;55.802;37.032;2023-04-29T02:52:31;99541.88;;;10.03
67515;BMP280;60646;55.802;37.032;2023-04-29T02:54:56;99544.03;;;9.99
67515;BMP280;60646;55.802;37.032;2023-04-29T02:57:22;99553.78;;;10.02
67515;BMP280;60646;55.802;37.032;2023-04-29T02:59:48;99551.78;;;9.97
67515;BMP280;60646;55.802;37.032;2023-04-29T03:02:14;99576.38;;;10.12
67515;BMP280;60646;55.802;37.032;2023-04-29T03:04:41;99563.22;;;10.03
67515;BMP280;60646;55.802;37.032;2023-04-29T03:07:07;99580.00;;;10.15
67515;BMP280;60646;55.802;37.032;2023-04-29T03:09:33;99579.53;;;10.11
67515;BMP280;60646;55.802;37.032;2023-04-29T03:11:59;99565.63;;;10.01
67515;BMP280;60646;55.802;37.032;2023-04-29T03:14:25;99586.28;;;10.06
67515;BMP280;60646;55.802;37.032;2023-04-29T03:16:51;99573.66;;;10.01
67515;BMP280;60646;55.802;37.032;2023-04-29T03:19:17;99556.34;;;9.91
67515;BMP280;60646;55.802;37.032;2023-04-29T03:21:43;99571.16;;;9.92
67515;BMP280;60646;55.802;37.032;2023-04-29T03:24:09;99579.69;;;9.96
67515;BMP280;60646;55.802;37.032;2023-04-29T03:26:35;99574.53;;;9.87
67515;BMP280;60646;55.802;37.032;2023-04-29T03:29:02;99594.47;;;9.97
67515;BMP280;60646;55.802;37.032;2023-04-29T03:31:28;99595.22;;;9.97
67515;BMP280;60646;55.802;37.032;2023-04-29T03:33:54;99634.38;;;10.17
67515;BMP280;60646;55.802;37.032;2023-04-29T03:36:21;99621.72;;;10.12
67515;BMP280;60646;55.802;37.032;2023-04-29T03:39:05;99612.47;;;10.08
67515;BMP280;60646;55.802;37.032;2023-04-29T03:41:31;99574.03;;;9.83
67515;BMP280;60646;55.802;37.032;2023-04-29T03:43:57;99626.63;;;10.19
67515;BMP280;60646;55.802;37.032;2023-04-29T03:46:26;99643.66;;;10.27
67515;BMP280;60646;55.802;37.032;2023-04-29T03:48:52;99620.00;;;10.09
67515;BMP280;60646;55.802;37.032;2023-04-29T03:51:22;99606.19;;;10.05
67515;BMP280;60646;55.802;37.032;2023-04-29T03:53:53;99619.81;;;10.18
67515;BMP280;60646;55.802;37.032;2023-04-29T03:56:19;99624.69;;;10.20
67515;BMP280;60646;55.802;37.032;2023-04-29T03:58:44;99635.41;;;10.25
67515;BMP280;60646;55.802;37.032;2023-04-29T04:01:11;99618.13;;;10.15
67515;BMP280;60646;55.802;37.032;2023-04-29T04:03:45;99638.06;;;10.31
67515;BMP280;60646;55.802;37.032;2023-04-29T04:06:11;99656.09;;;10.41
67515;BMP280;60646;55.802;37.032;2023-04-29T04:08:37;99636.41;;;10.33
67515;BMP280;60646;55.802;37.032;2023-04-29T04:11:18;99637.41;;;10.41
67515;BMP280;60646;55.802;37.032;2023-04-29T04:13:48;99632.31;;;10.38
67515;BMP280;60646;55.802;37.032;2023-04-29T04:16:16;99634.28;;;10.43
67515;BMP280;60646;55.802;37.032;2023-04-29T04:18:41;99644.97;;;10.48
67515;BMP280;60646;55.802;37.032;2023-04-29T04:21:09;99649.91;;;10.61
67515;BMP280;60646;55.802;37.032;2023-04-29T04:23:37;99647.91;;;10.56
67515;BMP280;60646;55.802;37.032;2023-04-29T04:26:07;99644.03;;;10.57
67515;BMP280;60646;55.802;37.032;2023-04-29T04:28:55;99646.75;;;10.63
67515;BMP280;60646;55.802;37.032;2023-04-29T04:31:53;99646.50;;;10.66
67515;BMP280;60646;55.802;37.032;2023-04-29T04:34:20;99633.59;;;10.59
67515;BMP280;60646;55.802;37.032;2023-04-29T04:36:48;99625.31;;;10.57
67515;BMP280;60646;55.802;37.032;2023-04-29T04:39:14;99636.34;;;10.70
67515;BMP280;60646;55.802;37.032;2023-04-29T04:41:40;99630.97;;;10.65
67515;BMP280;60646;55.802;37.032;2023-04-29T04:44:06;99645.81;;;10.77
67515;BMP280;60646;55.802;37.032;2023-04-29T04:46:52;99632.19;;;10.69
67515;BMP280;60646;55.802;37.032;2023-04-29T04:49:38;99635.59;;;10.81
67515;BMP280;60646;55.802;37.032;2023-04-29T04:52:04;99661.91;;;10.99
67515;BMP280;60646;55.802;37.032;2023-04-29T04:54:31;99642.22;;;10.91
67515;BMP280;60646;55.802;37.032;2023-04-29T04:57:14;99633.47;;;10.90
67515;BMP280;60646;55.802;37.032;2023-04-29T04:59:41;99627.38;;;10.90
67515;BMP280;60646;55.802;37.032;2023-04-29T05:02:07;99632.00;;;10.95
67515;BMP280;60646;55.802;37.032;2023-04-29T05:04:33;99632.25;;;10.97
67515;BMP280;60646;55.802;37.032;2023-04-29T05:06:59;99634.25;;;11.02
67515;BMP280;60646;55.802;37.032;2023-04-29T05:09:30;99625.44;;;10.96
67515;BMP280;60646;55.802;37.032;2023-04-29T05:11:56;99650.53;;;11.09
67515;BMP280;60646;55.802;37.032;2023-04-29T05:14:25;99638.84;;;11.07
67515;BMP280;60646;55.802;37.032;2023-04-29T05:16:51;99646.84;;;11.12
67515;BMP280;60646;55.802;37.032;2023-04-29T05:19:18;99625.47;;;11.07
67515;BMP280;60646;55.802;37.032;2023-04-29T05:21:44;99650.53;;;11.26
67515;BMP280;60646;55.802;37.032;2023-04-29T05:24:10;99634.72;;;11.17
67515;BMP280;60646;55.802;37.032;2023-04-29T05:26:37;99645.44;;;11.28
67515;BMP280;60646;55.802;37.032;2023-04-29T05:29:04;99637.19;;;11.32
67515;BMP280;60646;55.802;37.032;2023-04-29T05:31:37;99631.34;;;11.33
67515;BMP280;60646;55.802;37.032;2023-04-29T05:34:04;99640.56;;;11.43
67515;BMP280;60646;55.802;37.032;2023-04-29T05:36:30;99662.22;;;11.56
67515;BMP280;60646;55.802;37.032;2023-04-29T05:38:56;99647.84;;;11.48
67515;BMP280;60646;55.802;37.032;2023-04-29T05:41:22;99630.63;;;11.38
67515;BMP280;60646;55.802;37.032;2023-04-29T05:44:06;99671.25;;;11.70
67515;BMP280;60646;55.802;37.032;2023-04-29T05:46:33;99633.53;;;11.51
67515;BMP280;60646;55.802;37.032;2023-04-29T05:48:58;99649.81;;;11.64
67515;BMP280;60646;55.802;37.032;2023-04-29T05:51:24;99644.22;;;11.62
67515;BMP280;60646;55.802;37.032;2023-04-29T05:53:50;99643.25;;;11.65
67515;BMP280;60646;55.802;37.032;2023-04-29T05:56:17;99650.06;;;11.72
67515;BMP280;60646;55.802;37.032;2023-04-29T05:58:43;99651.00;;;11.80
67515;BMP280;60646;55.802;37.032;2023-04-29T06:01:09;99650.53;;;11.82
67515;BMP280;60646;55.802;37.032;2023-04-29T06:03:35;99669.25;;;11.98
67515;BMP280;60646;55.802;37.032;2023-04-29T06:06:34;99654.63;;;11.94
67515;BMP280;60646;55.802;37.032;2023-04-29T06:09:16;99670.97;;;11.96
67515;BMP280;60646;55.802;37.032;2023-04-29T06:11:46;99669.25;;;12.04
67515;BMP280;60646;55.802;37.032;2023-04-29T06:14:12;99663.41;;;12.00
67515;BMP280;60646;55.802;37.032;2023-04-29T06:16:39;99667.03;;;12.02
67515;BMP280;60646;55.802;37.032;2023-04-29T06:19:05;99662.69;;;12.05
67515;BMP280;60646;55.802;37.032;2023-04-29T06:21:31;99672.63;;;12.10
67515;BMP280;60646;55.802;37.032;2023-04-29T06:23:59;99663.41;;;12.11
67515;BMP280;60646;55.802;37.032;2023-04-29T06:26:24;99642.50;;;11.93
67515;BMP280;60646;55.802;37.032;2023-04-29T06:28:59;99693.50;;;12.39
67515;BMP280;60646;55.802;37.032;2023-04-29T06:31:54;99679.91;;;12.26
67515;BMP280;60646;55.802;37.032;2023-04-29T06:34:39;99670.66;;;12.27
67515;BMP280;60646;55.802;37.032;2023-04-29T06:37:24;99679.41;;;12.33
67515;BMP280;60646;55.802;37.032;2023-04-29T06:40:13;99669.66;;;12.30
67515;BMP280;60646;55.802;37.032;2023-04-29T06:42:59;99694.94;;;12.51
67515;BMP280;60646;55.802;37.032;2023-04-29T06:45:30;99686.91;;;12.46
67515;BMP280;60646;55.802;37.032;2023-04-29T06:48:17;99713.34;;;12.71
67515;BMP280;60646;55.802;37.032;2023-04-29T06:51:43;99725.75;;;12.80
67515;BMP280;60646;55.802;37.032;2023-04-29T06:54:09;99697.34;;;12.60
67515;BMP280;60646;55.802;37.032;2023-04-29T06:56:35;99728.13;;;12.89
67515;BMP280;60646;55.802;37.032;2023-04-29T06:59:01;99708.69;;;12.77
67515;BMP280;60646;55.802;37.032;2023-04-29T07:04:11;99695.22;;;12.88
67515;BMP280;60646;55.802;37.032;2023-04-29T07:06:38;99715.16;;;12.99
67515;BMP280;60646;55.802;37.032;2023-04-29T07:09:05;99713.66;;;13.09
67515;BMP280;60646;55.802;37.032;2023-04-29T07:11:31;99735.97;;;13.28
67515;BMP280;60646;55.802;37.032;2023-04-29T07:14:00;99702.91;;;13.09
67515;BMP280;60646;55.802;37.032;2023-04-29T07:16:29;99722.78;;;13.30
67515;BMP280;60646;55.802;37.032;2023-04-29T07:18:55;99726.38;;;13.38
67515;BMP280;60646;55.802;37.032;2023-04-29T07:21:21;99725.16;;;13.39
67515;BMP280;60646;55.802;37.032;2023-04-29T07:23:47;99729.53;;;13.42
67515;BMP280;60646;55.802;37.032;2023-04-29T07:26:14;99734.38;;;13.49
67515;BMP280;60646;55.802;37.032;2023-04-29T07:28:43;99733.88;;;13.50
67515;BMP280;60646;55.802;37.032;2023-04-29T07:31:09;99760.31;;;13.71
67515;BMP280;60646;55.802;37.032;2023-04-29T07:33:47;99761.50;;;13.75
67515;BMP280;60646;55.802;37.032;2023-04-29T07:36:16;99745.22;;;13.68
67515;BMP280;60646;55.802;37.032;2023-04-29T07:38:42;99738.88;;;13.65
67515;BMP280;60646;55.802;37.032;2023-04-29T07:41:08;99742.25;;;13.71
67515;BMP280;60646;55.802;37.032;2023-04-29T07:43:34;99755.13;;;13.78
67515;BMP280;60646;55.802;37.032;2023-04-29T07:45:59;99753.13;;;13.84
67515;BMP280;60646;55.802;37.032;2023-04-29T07:48:25;99725.19;;;13.69
67515;BMP280;60646;55.802;37.032;2023-04-29T07:50:51;99733.66;;;13.78
67515;BMP280;60646;55.802;37.032;2023-04-29T07:53:17;99748.44;;;13.90
67515;BMP280;60646;55.802;37.032;2023-04-29T07:55:43;99757.88;;;13.97
67515;BMP280;60646;55.802;37.032;2023-04-29T07:58:09;99755.94;;;13.97
67515;BMP280;60646;55.802;37.032;2023-04-29T08:00:35;99757.84;;;14.02
67515;BMP280;60646;55.802;37.032;2023-04-29T08:03:01;99778.22;;;14.17
67515;BMP280;60646;55.802;37.032;2023-04-29T08:05:27;99765.34;;;14.09
67515;BMP280;60646;55.802;37.032;2023-04-29T08:07:55;99766.00;;;14.15
67515;BMP280;60646;55.802;37.032;2023-04-29T08:10:24;99770.06;;;14.28
67515;BMP280;60646;55.802;37.032;2023-04-29T08:12:52;99767.66;;;14.24
67515;BMP280;60646;55.802;37.032;2023-04-29T08:15:17;99766.31;;;14.36
67515;BMP280;60646;55.802;37.032;2023-04-29T08:17:45;99756.06;;;14.35
67515;BMP280;60646;55.802;37.032;2023-04-29T08:20:11;99782.19;;;14.58
67515;BMP280;60646;55.802;37.032;2023-04-29T08:22:37;99773.75;;;14.49
67515;BMP280;60646;55.802;37.032;2023-04-29T08:25:03;99760.16;;;14.41
67515;BMP280;60646;55.802;37.032;2023-04-29T08:27:31;99773.28;;;14.50
67515;BMP280;60646;55.802;37.032;2023-04-29T08:29:58;99770.03;;;14.52
67515;BMP280;60646;55.802;37.032;2023-04-29T08:32:23;99777.13;;;14.55
67515;BMP280;60646;55.802;37.032;2023-04-29T08:34:49;99772.97;;;14.54
67515;BMP280;60646;55.802;37.032;2023-04-29T08:37:15;99767.81;;;14.56
67515;BMP280;60646;55.802;37.032;2023-04-29T08:39:42;99786.16;;;14.76
67515;BMP280;60646;55.802;37.032;2023-04-29T08:42:15;99767.69;;;14.67
67515;BMP280;60646;55.802;37.032;2023-04-29T08:44:45;99784.13;;;14.82
67515;BMP280;60646;55.802;37.032;2023-04-29T08:47:11;99758.03;;;14.77
67515;BMP280;60646;55.802;37.032;2023-04-29T08:49:39;99798.75;;;15.05
67515;BMP280;60646;55.802;37.032;2023-04-29T08:52:12;99775.91;;;14.93
67515;BMP280;60646;55.802;37.032;2023-04-29T08:55:01;99783.41;;;15.00
67515;BMP280;60646;55.802;37.032;2023-04-29T08:57:45;99801.59;;;15.13
67515;BMP280;60646;55.802;37.032;2023-04-29T09:00:31;99803.97;;;15.16
67515;BMP280;60646;55.802;37.032;2023-04-29T09:05:59;99803.66;;;15.20
67515;BMP280;60646;55.802;37.032;2023-04-29T09:08:36;99799.75;;;15.21
67515;BMP280;60646;55.802;37.032;2023-04-29T09:11:08;99809.94;;;15.28
67515;BMP280;60646;55.802;37.032;2023-04-29T09:13:37;99808.63;;;15.34
67515;BMP280;60646;55.802;37.032;2023-04-29T09:16:03;99798.66;;;15.29
67515;BMP280;60646;55.802;37.032;2023-04-29T09:18:44;99796.38;;;15.33
67515;BMP280;60646;55.802;37.032;2023-04-29T09:21:32;99816.72;;;15.48
67515;BMP280;60646;55.802;37.032;2023-04-29T09:23:59;99783.31;;;15.24
67515;BMP280;60646;55.802;37.032;2023-04-29T09:26:42;99819.88;;;15.52
67515;BMP280;60646;55.802;37.032;2023-04-29T09:29:14;99817.19;;;15.52
67515;BMP280;60646;55.802;37.032;2023-04-29T09:31:41;99813.13;;;15.45
67515;BMP280;60646;55.802;37.032;2023-04-29T09:34:07;99833.34;;;15.52
67515;BMP280;60646;55.802;37.032;2023-04-29T09:36:49;99830.84;;;15.54
67515;BMP280;60646;55.802;37.032;2023-04-29T09:39:17;99808.84;;;15.36
67515;BMP280;60646;55.802;37.032;2023-04-29T09:44:41;99822.03;;;15.53
67515;BMP280;60646;55.802;37.032;2023-04-29T09:47:20;99794.03;;;15.43
67515;BMP280;60646;55.802;37.032;2023-04-29T09:50:10;99826.75;;;15.66
67515;BMP280;60646;55.802;37.032;2023-04-29T09:52:40;99824.72;;;15.72
67515;BMP280;60646;55.802;37.032;2023-04-29T09:55:09;99799.59;;;15.64
67515;BMP280;60646;55.802;37.032;2023-04-29T09:57:39;99792.59;;;15.74
67515;BMP280;60646;55.802;37.032;2023-04-29T10:00:09;99812.94;;;15.88
67515;BMP280;60646;55.802;37.032;2023-04-29T10:02:55;99810.66;;;15.92
67515;BMP280;60646;55.802;37.032;2023-04-29T10:05:30;99816.38;;;16.01
67515;BMP280;60646;55.802;37.032;2023-04-29T10:07:57;99834.75;;;16.29
67515;BMP280;60646;55.802;37.032;2023-04-29T10:10:24;99829.19;;;16.27
67515;BMP280;60646;55.802;37.032;2023-04-29T10:12:52;99847.72;;;16.44
67515;BMP280;60646;55.802;37.032;2023-04-29T10:15:28;99821.50;;;16.31
67515;BMP280;60646;55.802;37.032;2023-04-29T10:18:20;99840.38;;;16.57
67515;BMP280;60646;55.802;37.032;2023-04-29T10:20:47;99808.44;;;16.35
67515;BMP280;60646;55.802;37.032;2023-04-29T10:23:14;99819.53;;;16.45
67515;BMP280;60646;55.802;37.032;2023-04-29T10:25:41;99855.06;;;16.69
67515;BMP280;60646;55.802;37.032;2023-04-29T10:28:17;99853.53;;;16.74
67515;BMP280;60646;55.802;37.032;2023-04-29T10:30:53;99847.81;;;16.77
67515;BMP280;60646;55.802;37.032;2023-04-29T10:33:34;99846.97;;;16.69
67515;BMP280;60646;55.802;37.032;2023-04-29T10:36:01;99836.41;;;16.71
67515;BMP280;60646;55.802;37.032;2023-04-29T10:38:44;99847.59;;;16.89
67515;BMP280;60646;55.802;37.032;2023-04-29T10:41:24;99845.41;;;16.87
67515;BMP280;60646;55.802;37.032;2023-04-29T10:51:00;99885.16;;;17.00
67515;BMP280;60646;55.802;37.032;2023-04-29T10:53:31;99882.25;;;16.98
67515;BMP280;60646;55.802;37.032;2023-04-29T10:56:07;99863.16;;;16.83
67515;BMP280;60646;55.802;37.032;2023-04-29T10:58:54;99884.22;;;16.97
67515;BMP280;60646;55.802;37.032;2023-04-29T11:01:41;99877.28;;;16.89
67515;BMP280;60646;55.802;37.032;2023-04-29T11:04:07;99877.06;;;16.87
67515;BMP280;60646;55.802;37.032;2023-04-29T11:06:55;99889.72;;;16.92
67515;BMP280;60646;55.802;37.032;2023-04-29T11:14:25;99857.16;;;16.77
67515;BMP280;60646;55.802;37.032;2023-04-29T11:16:55;99879.31;;;16.96
67515;BMP280;60646;55.802;37.032;2023-04-29T11:20:05;99869.19;;;16.89
67515;BMP280;60646;55.802;37.032;2023-04-29T11:25:02;99900.50;;;17.18
67515;BMP280;60646;55.802;37.032;2023-04-29T11:27:44;99872.78;;;17.17
67515;BMP280;60646;55.802;37.032;2023-04-29T11:30:13;99857.81;;;17.16
67515;BMP280;60646;55.802;37.032;2023-04-29T11:32:45;99883.50;;;17.43
67515;BMP280;60646;55.802;37.032;2023-04-29T11:35:22;99881.81;;;17.54
67515;BMP280;60646;55.802;37.032;2023-04-29T11:37:48;99880.28;;;17.66
67515;BMP280;60646;55.802;37.032;2023-04-29T11:40:17;99881.00;;;17.66
67515;BMP280;60646;55.802;37.032;2023-04-29T11:42:47;99874.41;;;17.75
67515;BMP280;60646;55.802;37.032;2023-04-29T11:48:49;99871.69;;;17.95
67515;BMP280;60646;55.802;37.032;2023-04-29T11:51:18;99884.47;;;18.16
67515;BMP280;60646;55.802;37.032;2023-04-29T11:53:47;99889.09;;;18.07
67515;BMP280;60646;55.802;37.032;2023-04-29T11:56:13;99870.47;;;17.96
67515;BMP280;60646;55.802;37.032;2023-04-29T11:58:41;99877.28;;;17.97
67515;BMP280;60646;55.802;37.032;2023-04-29T12:01:09;99898.78;;;18.03
67515;BMP280;60646;55.802;37.032;2023-04-29T12:03:36;99886.88;;;17.98
67515;BMP280;60646;55.802;37.032;2023-04-29T12:06:05;99887.72;;;17.93
67515;BMP280;60646;55.802;37.032;2023-04-29T12:09:09;99874.09;;;17.78
67515;BMP280;60646;55.802;37.032;2023-04-29T12:11:53;99876.59;;;17.76
67515;BMP280;60646;55.802;37.032;2023-04-29T12:14:19;99866.84;;;17.73
67515;BMP280;60646;55.802;37.032;2023-04-29T12:16:45;99858.16;;;17.67
67515;BMP280;60646;55.802;37.032;2023-04-29T12:19:11;99840.44;;;17.59
67515;BMP280;60646;55.802;37.032;2023-04-29T12:21:47;99862.25;;;17.81
67515;BMP280;60646;55.802;37.032;2023-04-29T12:26:59;99877.84;;;17.96
67515;BMP280;60646;55.802;37.032;2023-04-29T12:29:25;99875.00;;;18.01
67515;BMP280;60646;55.802;37.032;2023-04-29T12:31:51;99875.00;;;18.01
67515;BMP280;60646;55.802;37.032;2023-04-29T12:34:32;99877.81;;;18.17
67515;BMP280;60646;55.802;37.032;2023-04-29T12:36:58;99870.09;;;18.21
67515;BMP280;60646;55.802;37.032;2023-04-29T12:39:26;99841.47;;;18.04
67515;BMP280;60646;55.802;37.032;2023-04-29T12:41:59;99855.69;;;18.26
67515;BMP280;60646;55.802;37.032;2023-04-29T12:44:25;99845.91;;;18.23
67515;BMP280;60646;55.802;37.032;2023-04-29T12:46:50;99856.63;;;18.36
67515;BMP280;60646;55.802;37.032;2023-04-29T12:49:23;99877.88;;;18.60
67515;BMP280;60646;55.802;37.032;2023-04-29T12:51:49;99857.09;;;18.55
67515;BMP280;60646;55.802;37.032;2023-04-29T12:54:14;99863.84;;;18.69
67515;BMP280;60646;55.802;37.032;2023-04-29T12:56:40;99869.50;;;18.78
67515;BMP280;60646;55.802;37.032;2023-04-29T12:59:10;99893.34;;;18.95
67515;BMP280;60646;55.802;37.032;2023-04-29T13:01:37;99888.53;;;19.01
67515;BMP280;60646;55.802;37.032;2023-04-29T13:04:04;99876.94;;;18.93
67515;BMP280;60646;55.802;37.032;2023-04-29T13:06:40;99885.81;;;19.01
67515;BMP280;60646;55.802;37.032;2023-04-29T13:09:07;99880.19;;;18.99
67515;BMP280;60646;55.802;37.032;2023-04-29T13:11:37;99881.28;;;18.96
67515;BMP280;60646;55.802;37.032;2023-04-29T13:14:06;99879.44;;;18.91
67515;BMP280;60646;55.802;37.032;2023-04-29T13:16:33;99896.06;;;18.95
67515;BMP280;60646;55.802;37.032;2023-04-29T13:19:00;99846.16;;;18.68
67515;BMP280;60646;55.802;37.032;2023-04-29T13:21:26;99885.22;;;18.88
67515;BMP280;60646;55.802;37.032;2023-04-29T13:23:55;99878.34;;;18.79
67515;BMP280;60646;55.802;37.032;2023-04-29T13:26:22;99892.03;;;18.81
67515;BMP280;60646;55.802;37.032;2023-04-29T13:28:50;99871.09;;;18.66
67515;BMP280;60646;55.802;37.032;2023-04-29T13:31:16;99872.31;;;18.65
67515;BMP280;60646;55.802;37.032;2023-04-29T13:33:42;99854.78;;;18.59
67515;BMP280;60646;55.802;37.032;2023-04-29T13:36:09;99865.97;;;18.63
67515;BMP280;60646;55.802;37.032;2023-04-29T13:38:35;99861.28;;;18.56
67515;BMP280;60646;55.802;37.032;2023-04-29T13:41:01;99860.56;;;18.63
67515;BMP280;60646;55.802;37.032;2023-04-29T13:43:27;99834.72;;;18.47
67515;BMP280;60646;55.802;37.032;2023-04-29T13:45:53;99848.63;;;18.58
67515;BMP280;60646;55.802;37.032;2023-04-29T13:48:19;99862.75;;;18.64
67515;BMP280;60646;55.802;37.032;2023-04-29T13:50:44;99880.53;;;18.80
67515;BMP280;60646;55.802;37.032;2023-04-29T13:53:10;99865.69;;;18.74
67515;BMP280;60646;55.802;37.032;2023-04-29T13:55:36;99868.16;;;18.72
67515;BMP280;60646;55.802;37.032;2023-04-29T13:58:02;99856.97;;;18.68
67515;BMP280;60646;55.802;37.032;2023-04-29T14:00:34;99859.53;;;18.73
67515;BMP280;60646;55.802;37.032;2023-04-29T14:03:21;99874.75;;;18.84
67515;BMP280;60646;55.802;37.032;2023-04-29T14:05:47;99882.66;;;18.82
67515;BMP280;60646;55.802;37.032;2023-04-29T14:08:12;99854.47;;;18.70
67515;BMP280;60646;55.802;37.032;2023-04-29T14:10:38;99854.28;;;18.68
67515;BMP280;60646;55.802;37.032;2023-04-29T14:13:05;99837.50;;;18.62
67515;BMP280;60646;55.802;37.032;2023-04-29T14:15:49;99854.84;;;18.74
67515;BMP280;60646;55.802;37.032;2023-04-29T14:18:19;99878.00;;;18.90
67515;BMP280;60646;55.802;37.032;2023-04-29T14:20:45;99855.44;;;18.80
67515;BMP280;60646;55.802;37.032;2023-04-29T14:23:23;99856.31;;;18.90
67515;BMP280;60646;55.802;37.032;2023-04-29T14:25:49;99837.88;;;18.81
67515;BMP280;60646;55.802;37.032;2023-04-29T14:28:14;99865.75;;;19.04
67515;BMP280;60646;55.802;37.032;2023-04-29T14:30:40;99835.75;;;18.87
67515;BMP280;60646;55.802;37.032;2023-04-29T14:33:08;99829.47;;;18.92
67515;BMP280;60646;55.802;37.032;2023-04-29T14:35:53;99859.69;;;19.11
67515;BMP280;60646;55.802;37.032;2023-04-29T14:38:18;99852.97;;;19.05
67515;BMP280;60646;55.802;37.032;2023-04-29T14:40:44;99867.22;;;19.13
67515;BMP280;60646;55.802;37.032;2023-04-29T14:43:10;99861.44;;;19.09
67515;BMP280;60646;55.802;37.032;2023-04-29T14:45:36;99873.75;;;19.17
67515;BMP280;60646;55.802;37.032;2023-04-29T14:48:20;99859.69;;;19.11
67515;BMP280;60646;55.802;37.032;2023-04-29T14:50:46;99861.66;;;19.11
67515;BMP280;60646;55.802;37.032;2023-04-29T14:53:12;99857.31;;;19.08
67515;BMP280;60646;55.802;37.032;2023-04-29T14:55:38;99860.19;;;19.02
67515;BMP280;60646;55.802;37.032;2023-04-29T14:58:04;99853.69;;;19.05